Time;durP1;ratioP1;P1;durP2;ratioP2;P2;SDS_P1;SDS_P2;PMS_P1;PMS_P2;Temp;Humidity;BMP_temperature;BMP_pressure;BME280_temperature;BME280_humidity;BME280_pressure;Samples;Min_cycle;Max_cycle;Signal;HPM_P1;HPM_P2
2022/04/20 00:00:59;;;;;;;5.50;4.55;;;;;;;9.09;69.26;101369.19;5090420;28;20024;-84
2022/04/20 00:03:25;;;;;;;6.40;4.38;;;;;;;8.99;69.63;101352.00;5090076;28;20062;-84
2022/04/20 00:05:51;;;;;;;5.28;4.28;;;;;;;9.02;69.23;101353.94;5092039;28;20127;-83
2022/04/20 00:08:16;;;;;;;5.93;4.47;;;;;;;8.90;69.27;101338.34;5092223;28;20165;-84
2022/04/20 00:10:42;;;;;;;5.75;4.47;;;;;;;9.29;69.77;101404.44;5091727;28;20031;-83
2022/04/20 00:13:08;;;;;;;5.72;4.40;;;;;;;9.30;69.49;101403.66;5091442;28;20131;-84
2022/04/20 00:15:33;;;;;;;5.50;4.38;;;;;;;9.31;69.25;101408.06;5091335;28;20485;-83
2022/04/20 00:17:59;;;;;;;6.22;4.32;;;;;;;9.03;69.42;101366.16;5091749;28;20512;-83
2022/04/20 00:20:25;;;;;;;5.43;4.50;;;;;;;9.28;69.59;101407.84;5091555;28;20038;-84
2022/04/20 00:22:50;;;;;;;5.88;4.38;;;;;;;9.17;69.55;101386.28;5091956;28;20020;-84
2022/04/20 00:25:16;;;;;;;6.22;4.85;;;;;;;9.11;69.56;101384.13;5091483;28;20120;-84
2022/04/20 00:27:41;;;;;;;5.13;4.25;;;;;;;9.14;69.80;101386.97;5089963;28;20401;-84
2022/04/20 00:30:08;;;;;;;6.65;4.68;;;;;;;9.15;69.24;101393.06;5091187;28;20098;-84
2022/04/20 00:32:34;;;;;;;5.20;4.10;;;;;;;8.98;69.56;101376.25;5090918;28;20532;-84
2022/04/20 00:35:00;;;;;;;;;;;;;;;9.26;69.39;101422.47;5090622;28;20081;-84
2022/04/20 00:37:25;;;;;;;6.00;4.38;;;;;;;9.15;69.34;101407.00;5089821;28;19912;-84
2022/04/20 00:39:51;;;;;;;6.00;4.70;;;;;;;9.17;69.58;101412.31;5090049;28;20464;-84
2022/04/20 00:42:19;;;;;;;6.10;4.50;;;;;;;9.00;69.20;101384.19;5091636;28;20735;-83
2022/04/20 00:44:44;;;;;;;5.10;4.20;;;;;;;8.99;69.53;101375.44;5089844;28;20032;-84
2022/04/20 00:47:10;;;;;;;4.55;3.88;;;;;;;9.20;69.44;101428.16;5090744;28;20035;-83
2022/04/20 00:49:37;;;;;;;6.40;4.82;;;;;;;9.10;69.47;101402.25;5090778;28;20039;-84
2022/04/20 00:52:03;;;;;;;;;;;;;;;9.25;69.68;101431.09;5097703;28;20058;-83
2022/04/20 00:54:29;;;;;;;5.72;4.28;;;;;;;9.20;69.57;101427.25;5099559;28;20003;-84
2022/04/20 00:56:55;;;;;;;5.60;4.18;;;;;;;8.99;69.30;101388.47;5078743;28;20185;-84
2022/04/20 00:59:26;;;;;;;4.80;4.25;;;;;;;9.07;69.32;101389.91;5086044;28;20036;-84
2022/04/20 01:01:51;;;;;;;6.80;4.47;;;;;;;9.06;69.32;101387.19;5089682;28;20085;-84
2022/04/20 01:04:17;;;;;;;5.53;4.32;;;;;;;9.19;69.40;101415.03;5089973;28;20032;-84
2022/04/20 01:06:43;;;;;;;5.10;4.28;;;;;;;9.01;69.53;101392.09;5089783;28;20386;-83
2022/04/20 01:09:09;;;;;;;4.72;4.03;;;;;;;9.02;69.55;101393.03;5091341;28;20024;-84
2022/04/20 01:11:35;;;;;;;5.68;4.35;;;;;;;9.05;69.51;101403.66;5090235;28;20032;-83
2022/04/20 01:14:00;;;;;;;5.57;4.35;;;;;;;8.91;69.22;101381.81;5090067;28;20047;-84
2022/04/20 01:16:26;;;;;;;5.03;4.00;;;;;;;9.04;69.60;101418.38;5093917;28;20032;-83
2022/04/20 01:18:53;;;;;;;5.78;4.53;;;;;;;8.96;69.42;101401.31;5093959;28;20028;-84
2022/04/20 01:21:19;;;;;;;4.60;4.00;;;;;;;9.03;69.24;101413.06;5094158;28;20036;-84
2022/04/20 01:23:44;;;;;;;6.20;4.38;;;;;;;8.85;69.19;101373.59;5094715;28;20030;-84
2022/04/20 01:26:11;;;;;;;6.13;4.30;;;;;;;9.20;69.04;101422.94;5094806;28;20036;-84
2022/04/20 01:28:37;;;;;;;;;;;;;;;9.19;69.45;101433.28;5095446;28;20028;-83
2022/04/20 01:31:03;;;;;;;5.85;4.32;;;;;;;8.82;69.48;101370.75;5092993;28;19945;-83
2022/04/20 01:33:29;;;;;;;6.30;4.13;;;;;;;8.80;69.42;101372.34;5093808;28;20529;-83
2022/04/20 01:35:54;;;;;;;5.85;4.40;;;;;;;8.83;69.21;101390.81;5093540;28;20035;-83
2022/04/20 01:38:20;;;;;;;5.55;4.30;;;;;;;8.78;69.74;101372.25;5095029;28;20028;-83
2022/04/20 01:40:46;;;;;;;6.00;4.50;;;;;;;9.07;69.57;101429.00;5094532;28;20028;-84
2022/04/20 01:43:11;;;;;;;5.95;4.63;;;;;;;8.65;69.42;101347.03;5093738;28;20270;-84
2022/04/20 01:45:37;;;;;;;5.60;4.28;;;;;;;8.91;69.63;101390.56;5093968;28;20043;-84
2022/04/20 01:48:03;;;;;;;5.60;4.03;;;;;;;9.12;69.63;101432.84;5093372;28;20012;-83
2022/04/20 01:50:29;;;;;;;6.10;4.78;;;;;;;8.92;69.19;101397.56;5094305;28;20115;-84
2022/04/20 01:52:54;;;;;;;5.80;4.50;;;;;;;8.94;69.33;101403.78;5093092;28;20500;-83
2022/04/20 01:55:20;;;;;;;5.35;4.47;;;;;;;8.93;69.31;101402.00;5094549;28;20034;-83
2022/04/20 01:57:46;;;;;;;4.90;4.05;;;;;;;8.81;69.49;101376.78;5093077;28;20516;-84
2022/04/20 02:00:12;;;;;;;4.97;4.40;;;;;;;9.08;69.68;101437.72;5093180;28;20536;-84
2022/04/20 02:02:38;;;;;;;6.05;4.30;;;;;;;8.58;69.48;101357.81;5093098;28;20039;-84
2022/04/20 02:05:09;;;;;;;4.82;3.88;;;;;;;9.06;69.98;101436.69;5094216;28;20030;-84
2022/04/20 02:07:35;;;;;;;5.45;4.30;;;;;;;8.96;69.59;101414.31;5093829;28;20082;-84
2022/04/20 02:10:01;;;;;;;5.50;4.15;;;;;;;8.96;69.63;101412.63;5094105;28;20032;-83
2022/04/20 02:12:27;;;;;;;5.20;3.97;;;;;;;8.64;69.69;101354.75;5092581;28;20028;-83
2022/04/20 02:14:53;;;;;;;5.50;4.20;;;;;;;8.86;69.64;101388.41;5092409;28;20493;-83
2022/04/20 02:17:19;;;;;;;5.22;4.25;;;;;;;8.99;69.45;101419.75;5093728;28;20040;-83
2022/04/20 02:19:45;;;;;;;5.25;4.20;;;;;;;8.96;69.47;101415.22;5093888;28;20587;-83
2022/04/20 02:22:11;;;;;;;5.95;4.35;;;;;;;9.03;69.28;101429.56;5076082;28;20028;-83
2022/04/20 02:24:36;;;;;;;4.80;4.00;;;;;;;8.89;69.33;101406.84;5092275;28;20081;-83
2022/04/20 02:27:02;;;;;;;5.75;4.45;;;;;;;9.04;69.53;101435.69;5092999;28;20024;-83
2022/04/20 02:29:28;;;;;;;6.30;4.68;;;;;;;8.88;69.45;101413.75;5092272;28;20116;-83
2022/04/20 02:31:54;;;;;;;5.78;4.35;;;;;;;8.61;69.41;101360.63;5074147;28;20486;-83
2022/04/20 02:34:19;;;;;;;6.05;4.38;;;;;;;8.91;69.52;101407.88;5089160;28;20092;-83
2022/04/20 02:36:45;;;;;;;5.72;4.57;;;;;;;9.02;69.59;101422.56;5093924;28;20085;-82
2022/04/20 02:39:11;;;;;;;5.03;4.13;;;;;;;8.84;69.68;101397.81;5092128;28;20028;-83
2022/04/20 02:41:37;;;;;;;5.50;4.32;;;;;;;9.00;69.76;101431.09;5092407;28;20395;-83
2022/04/20 02:44:04;;;;;;;;;;;;;;;8.99;69.47;101435.38;5092044;28;20052;-83
2022/04/20 02:46:29;;;;;;;6.28;4.50;;;;;;;8.89;69.57;101425.09;5092456;28;19912;-83
2022/04/20 02:48:55;;;;;;;5.88;4.38;;;;;;;8.83;69.37;101409.06;5091809;28;20020;-83
2022/04/20 02:51:20;;;;;;;5.75;4.22;;;;;;;8.80;69.61;101414.91;5092841;28;20037;-83
2022/04/20 02:53:46;;;;;;;5.22;4.30;;;;;;;8.77;69.92;101399.09;5092951;28;20024;-83
2022/04/20 02:56:12;;;;;;;5.72;4.30;;;;;;;8.94;69.72;101428.94;5092944;28;20409;-83
2022/04/20 02:58:37;;;;;;;4.95;4.22;;;;;;;8.92;69.80;101426.22;5092179;28;20092;-83
2022/04/20 03:01:03;;;;;;;5.23;4.17;;;;;;;8.74;69.75;101391.03;5092442;28;20458;-83
2022/04/20 03:03:29;;;;;;;5.45;4.25;;;;;;;8.38;69.57;101335.50;5092420;28;20285;-83
2022/04/20 03:05:54;;;;;;;5.32;4.25;;;;;;;8.66;70.02;101380.09;5090654;28;20594;-83
2022/04/20 03:08:22;;;;;;;6.25;4.68;;;;;;;8.89;69.52;101420.81;5091791;28;20056;-83
2022/04/20 03:10:48;;;;;;;5.10;4.32;;;;;;;8.93;69.76;101421.91;5092802;28;20036;-83
2022/04/20 03:13:13;;;;;;;5.28;4.32;;;;;;;8.95;69.71;101429.06;5093026;28;20024;-82
2022/04/20 03:15:39;;;;;;;5.45;4.05;;;;;;;8.43;69.31;101341.13;5092465;28;20034;-83
2022/04/20 03:18:05;;;;;;;6.38;4.85;;;;;;;8.91;69.51;101424.41;5091075;28;20390;-83
2022/04/20 03:20:30;;;;;;;5.28;4.40;;;;;;;8.48;69.63;101348.44;5093153;28;20429;-83
2022/04/20 03:22:56;;;;;;;6.05;4.32;;;;;;;8.88;69.56;101418.97;5091907;28;20056;-82
2022/04/20 03:25:21;;;;;;;6.30;4.28;;;;;;;8.86;69.61;101411.84;5090710;28;20065;-82
2022/04/20 03:27:47;;;;;;;5.80;4.32;;;;;;;8.91;69.52;101428.69;5092462;28;20026;-83
2022/04/20 03:30:14;;;;;;;5.15;4.22;;;;;;;8.71;69.82;101394.34;5091601;28;20105;-83
2022/04/20 03:32:40;;;;;;;5.93;4.80;;;;;;;8.87;69.79;101439.69;5092571;28;20024;-83
2022/04/20 03:35:06;;;;;;;6.78;4.57;;;;;;;8.88;69.43;101434.59;5091520;28;20024;-82
2022/04/20 03:37:32;;;;;;;5.90;4.43;;;;;;;8.72;69.50;101403.97;5091188;28;20073;-83
2022/04/20 03:39:59;;;;;;;5.78;4.28;;;;;;;8.70;69.46;101405.56;5092162;28;20412;-83
2022/04/20 03:42:26;;;;;;;4.88;4.35;;;;;;;8.46;69.23;101360.44;5091101;28;20029;-83
2022/04/20 03:44:51;;;;;;;;;;;;;;;8.86;69.56;101437.91;5091541;28;20078;-83
2022/04/20 03:47:17;;;;;;;4.80;4.10;;;;;;;8.39;69.52;101367.69;5091512;28;19916;-83
2022/04/20 03:49:42;;;;;;;5.32;4.25;;;;;;;8.40;69.54;101377.28;5091320;28;20030;-83
2022/04/20 03:52:08;;;;;;;6.22;4.68;;;;;;;8.85;69.51;101449.13;5092437;28;20497;-83
2022/04/20 03:54:37;;;;;;;5.13;4.20;;;;;;;8.56;69.71;101393.25;5091231;28;20024;-83
2022/04/20 03:57:03;;;;;;;5.50;4.20;;;;;;;8.83;69.73;101445.50;5091292;28;20039;-83
2022/04/20 03:59:30;;;;;;;6.30;4.65;;;;;;;8.73;69.66;101425.69;5089956;28;20470;-83
2022/04/20 04:01:56;;;;;;;6.15;4.50;;;;;;;8.69;69.46;101423.66;5090973;28;20036;-83
2022/04/20 04:04:21;;;;;;;6.07;4.28;;;;;;;8.35;69.73;101380.44;5090987;28;20024;-83
2022/04/20 04:06:47;;;;;;;6.47;4.65;;;;;;;8.76;69.43;101442.47;5090712;28;20039;-83
2022/04/20 04:09:13;;;;;;;6.50;4.47;;;;;;;8.71;69.63;101438.59;5089042;28;20680;-83
2022/04/20 04:11:39;;;;;;;6.28;4.50;;;;;;;8.73;69.46;101438.72;5088133;28;20039;-82
2022/04/20 04:14:05;;;;;;;6.18;4.53;;;;;;;8.32;69.58;101374.13;5090492;28;20028;-84
2022/04/20 04:16:36;;;;;;;5.28;4.05;;;;;;;8.58;69.43;101415.09;5091904;28;20031;-83
2022/04/20 04:19:03;;;;;;;6.20;4.65;;;;;;;8.45;69.64;101408.09;5077369;28;20025;-83
2022/04/20 04:21:29;;;;;;;6.45;4.65;;;;;;;8.59;69.86;101436.81;5085694;28;20090;-83
2022/04/20 04:23:54;;;;;;;6.18;4.35;;;;;;;8.27;69.53;101383.28;5081475;28;20032;-83
2022/04/20 04:26:20;;;;;;;5.40;4.40;;;;;;;8.41;69.63;101407.75;5078009;28;20513;-83
2022/04/20 04:28:46;;;;;;;6.20;4.55;;;;;;;8.73;69.63;101472.56;5069836;28;20052;-83
2022/04/20 04:31:11;;;;;;;5.90;4.85;;;;;;;8.72;69.97;101471.69;5070452;28;20027;-83
2022/04/20 04:33:37;;;;;;;5.70;4.47;;;;;;;8.61;69.87;101453.44;5070317;28;20579;-83
2022/04/20 04:36:03;;;;;;;6.30;4.45;;;;;;;8.66;69.69;101468.63;5070306;28;20489;-83
2022/04/20 04:38:29;;;;;;;6.57;4.60;;;;;;;8.71;69.72;101484.56;5086228;28;20044;-84
2022/04/20 04:40:54;;;;;;;6.03;4.60;;;;;;;8.37;69.69;101430.00;5080309;28;20028;-84
2022/04/20 04:43:20;;;;;;;6.65;4.60;;;;;;;8.54;69.35;101462.53;5077999;28;20463;-83
2022/04/20 04:48:42;;;;;;;6.32;4.55;;;;;;;8.65;69.61;101495.44;5091105;28;20051;-84
2022/04/20 04:51:09;;;;;;;6.10;4.80;;;;;;;8.71;69.69;101516.72;5090042;28;20035;-82
2022/04/20 04:53:38;;;;;;;6.38;4.80;;;;;;;8.60;69.87;101491.59;5091361;28;20028;-84
2022/04/20 04:56:04;;;;;;;7.32;5.00;;;;;;;8.65;69.92;101491.94;5090200;28;20034;-83
2022/04/20 04:58:30;;;;;;;5.72;4.72;;;;;;;8.59;70.03;101481.06;5089677;28;20052;-83
2022/04/20 05:00:55;;;;;;;5.63;4.40;;;;;;;8.49;69.88;101470.00;5073360;28;20418;-83
2022/04/20 05:03:21;;;;;;;6.60;4.93;;;;;;;8.26;69.54;101437.03;5090076;28;20040;-83
2022/04/20 05:05:47;;;;;;;7.28;5.03;;;;;;;8.31;69.70;101438.25;5091347;28;20056;-83
2022/04/20 05:08:13;;;;;;;5.88;4.55;;;;;;;8.45;69.70;101462.75;5090070;28;20103;-83
2022/04/20 05:10:38;;;;;;;6.40;4.55;;;;;;;8.69;69.76;101507.00;5091024;28;20036;-83
2022/04/20 05:13:05;;;;;;;5.57;4.65;;;;;;;8.70;69.72;101512.31;5090169;28;20035;-83
2022/04/20 05:15:30;;;;;;;;;;;;;;;8.71;69.66;101508.91;5087381;28;20028;-84
2022/04/20 05:17:56;;;;;;;6.13;4.40;;;;;;;8.67;69.76;101512.06;5074162;28;19916;-83
2022/04/20 05:20:22;;;;;;;5.85;4.50;;;;;;;8.29;69.72;101444.16;5089932;28;20036;-83
2022/04/20 05:22:48;;;;;;;7.53;4.70;;;;;;;8.56;69.67;101494.78;5090030;28;20601;-82
2022/04/20 05:25:15;;;;;;;6.28;4.72;;;;;;;8.60;69.94;101502.03;5088697;28;20553;-86
2022/04/20 05:27:40;;;;;;;6.78;4.30;;;;;;;8.34;69.76;101454.13;5088720;28;20114;-82
2022/04/20 05:30:08;;;;;;;6.53;4.72;;;;;;;8.62;69.69;101497.84;5077049;28;20107;-83
2022/04/20 05:32:34;;;;;;;6.25;4.80;;;;;;;8.65;69.85;101505.84;5089706;28;20110;-83
2022/04/20 05:35:01;;;;;;;6.70;4.82;;;;;;;8.53;69.98;101484.16;5090984;28;20095;-83
2022/04/20 05:42:56;;;;;;;6.20;4.50;;;;;;;8.62;69.74;101504.75;5090081;28;20038;-82
2022/04/20 05:45:22;;;;;;;5.60;4.60;;;;;;;8.55;69.88;101496.47;5090905;28;20085;-82
2022/04/20 05:47:48;;;;;;;6.43;4.55;;;;;;;8.62;69.83;101505.63;5089543;28;20031;-82
2022/04/20 05:50:13;;;;;;;5.32;4.43;;;;;;;8.44;69.88;101473.03;5090814;28;20039;-82
2022/04/20 05:52:39;;;;;;;6.00;4.55;;;;;;;8.62;69.72;101515.16;5089793;28;20473;-82
2022/04/20 05:55:06;;;;;;;7.07;4.90;;;;;;;8.61;69.90;101516.81;5091027;28;20509;-84
2022/04/20 05:57:33;;;;;;;5.22;4.20;;;;;;;8.22;69.64;101450.59;5089452;28;20107;-83
2022/04/20 05:59:59;;;;;;;7.50;4.72;;;;;;;8.56;69.99;101500.88;5088419;28;20468;-83
2022/04/20 06:02:24;;;;;;;6.18;4.70;;;;;;;8.42;69.99;101482.44;5090510;28;20036;-83
2022/04/20 06:04:50;;;;;;;6.95;4.78;;;;;;;8.28;69.71;101460.56;5093224;28;20048;-83
2022/04/20 06:07:16;;;;;;;6.67;4.90;;;;;;;8.48;69.95;101486.38;5093360;28;20038;-82
2022/04/20 06:09:42;;;;;;;6.90;4.85;;;;;;;8.55;70.16;101508.56;5093056;28;20274;-84
2022/04/20 06:12:07;;;;;;;6.32;4.30;;;;;;;8.56;69.84;101507.78;5093037;28;20028;-83
2022/04/20 06:14:33;;;;;;;5.75;4.53;;;;;;;8.28;69.97;101470.97;5094389;28;20023;-83
2022/04/20 06:16:59;;;;;;;5.75;4.22;;;;;;;8.32;69.84;101486.94;5076214;28;20164;-83
2022/04/20 06:19:25;;;;;;;6.13;4.63;;;;;;;8.52;70.39;101513.56;5093982;28;20090;-83
2022/04/20 06:21:51;;;;;;;7.07;4.60;;;;;;;8.44;70.06;101492.16;5093223;28;20501;-83
2022/04/20 06:24:16;;;;;;;5.90;4.68;;;;;;;8.48;70.18;101494.19;5093158;28;20035;-83
2022/04/20 06:26:42;;;;;;;5.82;4.75;;;;;;;8.57;70.05;101499.16;5074644;28;20055;-86
2022/04/20 06:29:08;;;;;;;6.80;4.63;;;;;;;8.40;70.27;101470.97;5073110;28;20040;-85
2022/04/20 06:31:34;;;;;;;6.25;4.43;;;;;;;8.41;70.23;101470.22;5072386;28;20032;-86
2022/04/20 06:33:59;;;;;;;5.28;4.22;;;;;;;8.42;70.08;101465.09;5073374;28;20041;-85
2022/04/20 06:36:26;;;;;;;6.43;4.80;;;;;;;8.24;70.01;101433.41;5073599;28;20730;-84
2022/04/20 06:38:54;;;;;;;5.95;4.63;;;;;;;8.32;70.06;101440.09;5072350;28;20060;-85
2022/04/20 06:41:20;;;;;;;7.22;5.07;;;;;;;8.36;69.94;101451.63;5073761;28;20054;-88
2022/04/20 06:43:46;;;;;;;7.00;4.68;;;;;;;8.14;70.05;101411.00;5072496;28;20033;-85
2022/04/20 06:46:12;;;;;;;6.85;4.70;;;;;;;8.25;70.03;101427.41;5072165;28;20040;-85
2022/04/20 06:48:37;;;;;;;6.60;4.53;;;;;;;8.45;70.28;101464.47;5078109;28;20170;-85
2022/04/20 06:51:03;;;;;;;5.65;4.50;;;;;;;8.25;70.05;101432.59;5093758;28;20500;-85
2022/04/20 06:58:58;;;;;;;6.57;4.95;;;;;;;8.62;70.02;101486.53;5092319;28;20471;-87
2022/04/20 07:01:23;;;;;;;5.97;4.50;;;;;;;8.14;69.90;101404.91;5092192;28;20027;-87
2022/04/20 07:03:49;;;;;;;6.50;4.70;;;;;;;8.26;70.00;101425.72;5075722;28;20156;-86
2022/04/20 07:06:15;;;;;;;6.10;4.50;;;;;;;8.56;70.18;101485.25;5081232;28;20062;-87
2022/04/20 07:08:40;;;;;;;6.78;4.90;;;;;;;8.21;70.06;101421.88;5070834;28;20410;-87
2022/04/20 07:11:06;;;;;;;5.82;4.57;;;;;;;8.24;69.86;101425.59;5071273;28;20024;-88
2022/04/20 07:13:34;;;;;;;5.93;4.80;;;;;;;8.30;70.50;101439.06;5071080;28;20446;-87
2022/04/20 07:16:00;;;;;;;7.47;5.30;;;;;;;8.41;70.16;101454.63;5070935;28;20205;-88
2022/04/20 07:18:25;;;;;;;6.50;4.80;;;;;;;8.39;69.84;101445.75;5068107;28;20070;-87
2022/04/20 07:20:52;;;;;;;6.95;5.07;;;;;;;8.56;70.16;101472.25;5071285;28;20020;-86
2022/04/20 07:23:19;;;;;;;7.20;5.10;;;;;;;8.28;70.07;101413.75;5071021;28;20020;-86
2022/04/20 07:25:44;;;;;;;6.78;5.00;;;;;;;8.32;69.98;101415.78;5071137;28;20024;-86
2022/04/20 07:28:10;;;;;;;6.47;5.18;;;;;;;8.38;70.12;101430.91;5071102;28;20424;-87
2022/04/20 07:30:36;;;;;;;5.95;4.82;;;;;;;8.61;69.75;101467.38;5071023;28;20036;-87
2022/04/20 07:33:03;;;;;;;7.03;5.28;;;;;;;8.59;70.21;101457.63;5088611;28;20253;-86
2022/04/20 07:35:29;;;;;;;6.93;5.13;;;;;;;8.62;70.10;101461.38;5071610;28;20029;-86
2022/04/20 07:37:55;;;;;;;;;;;;;;;8.61;70.26;101462.16;5055199;28;20504;-86
2022/04/20 07:40:21;;;;;;;6.53;4.72;;;;;;;8.34;70.08;101417.69;5072698;28;19912;-86
2022/04/20 07:42:50;;;;;;;;;;;;;;;8.58;70.29;101461.06;5071934;28;20024;-88
2022/04/20 07:45:16;;;;;;;6.82;5.00;;;;;;;8.34;70.40;101408.97;5088239;28;19912;-86
2022/04/20 07:47:42;;;;;;;7.68;5.03;;;;;;;8.26;70.26;101389.31;5071280;28;20045;-84
2022/04/20 07:50:20;;;;;;;6.87;5.03;;;;;;;8.48;70.39;101430.84;5088655;28;20032;-88
2022/04/20 07:52:51;;;;;;;7.50;5.30;;;;;;;8.58;70.40;101442.81;5078648;28;20111;-86
2022/04/20 07:55:21;;;;;;;6.07;4.65;;;;;;;8.32;70.48;101402.75;5070306;28;20020;-86
2022/04/20 07:57:47;;;;;;;7.60;5.28;;;;;;;8.55;70.32;101441.81;5071313;28;20031;-85
2022/04/20 08:00:14;;;;;;;8.57;5.43;;;;;;;8.60;70.40;101449.94;5070064;28;20041;-86
2022/04/20 08:02:41;;;;;;;8.40;5.90;;;;;;;8.50;70.51;101432.75;5070225;28;20115;-86
2022/04/20 08:05:06;;;;;;;;;;;;;;;8.63;70.16;101460.56;5070920;28;20429;-85
2022/04/20 08:07:33;;;;;;;7.25;5.15;;;;;;;8.47;70.28;101424.72;5087152;28;20401;-83
2022/04/20 08:09:58;;;;;;;;;;;;;;;8.63;70.38;101462.28;5071197;28;20056;-83
2022/04/20 08:12:29;;;;;;;7.40;5.50;;;;;;;8.39;70.36;101418.03;5087408;28;19944;-84
2022/04/20 08:14:55;;;;;;;7.55;5.40;;;;;;;8.34;70.28;101402.06;5071889;28;20029;-85
2022/04/20 08:17:21;;;;;;;7.72;5.78;;;;;;;8.37;70.40;101404.00;5071934;28;20029;-83
2022/04/20 08:19:46;;;;;;;6.93;5.47;;;;;;;8.33;70.44;101395.03;5073041;28;20494;-84
2022/04/20 08:22:15;;;;;;;7.97;5.40;;;;;;;8.29;70.17;101382.59;5074099;28;20029;-84
2022/04/20 08:24:44;;;;;;;8.05;5.35;;;;;;;8.64;70.17;101441.56;5074555;28;20029;-85
2022/04/20 08:27:11;;;;;;;9.57;6.20;;;;;;;8.70;70.07;101407.25;5071239;28;20071;-82
2022/04/20 08:29:37;;;;;;;12.45;7.05;;;;;;;8.59;70.28;101400.38;5070834;28;20036;-82
2022/04/20 08:32:03;;;;;;;9.45;6.68;;;;;;;8.45;70.38;101394.19;5070079;28;20018;-82
2022/04/20 08:34:28;;;;;;;10.73;6.68;;;;;;;8.46;70.11;101377.75;5070369;28;20510;-82
2022/04/20 08:36:54;;;;;;;10.52;6.50;;;;;;;8.78;69.90;101416.50;5070287;28;20077;-83
2022/04/20 08:39:19;;;;;;;9.90;6.30;;;;;;;8.75;69.03;101359.00;5071517;28;20071;-83
2022/04/20 08:41:52;;;;;;;9.27;6.00;;;;;;;9.32;68.39;101426.41;5071373;28;20802;-83
2022/04/20 08:44:27;;;;;;;8.07;5.75;;;;;;;9.31;68.32;101429.84;5070432;28;20570;-82
2022/04/20 08:46:55;;;;;;;10.17;6.17;;;;;;;9.11;68.49;101402.38;5069577;28;20513;-83
2022/04/20 08:49:21;;;;;;;8.93;6.20;;;;;;;8.98;68.82;101404.03;5078232;28;20031;-84
2022/04/20 08:54:34;;;;;;;;;;;;;;;9.04;69.24;101413.16;5091558;28;20039;-84
2022/04/20 08:57:15;;;;;;;7.85;5.53;;;;;;;8.94;70.03;101405.50;5091454;28;19908;-83
2022/04/20 08:59:42;;;;;;;8.40;5.82;;;;;;;8.63;69.84;101356.44;5090981;28;20109;-83
2022/04/20 09:02:10;;;;;;;7.70;5.88;;;;;;;8.99;69.99;101401.50;5090342;28;20256;-83
2022/04/20 09:04:36;;;;;;;8.15;5.72;;;;;;;8.90;69.98;101383.53;5089905;28;20024;-83
2022/04/20 09:07:03;;;;;;;8.18;5.88;;;;;;;8.62;69.88;101335.53;5089847;28;20539;-83
2022/04/20 09:09:30;;;;;;;8.25;5.40;;;;;;;9.00;70.00;101403.31;5090202;28;20042;-83
2022/04/20 09:11:59;;;;;;;6.95;4.68;;;;;;;8.98;70.56;101338.91;5091386;28;20133;-83
2022/04/20 09:14:28;;;;;;;13.63;6.10;;;;;;;9.96;69.20;101398.59;5090141;28;20051;-83
2022/04/20 09:16:55;;;;;;;9.00;5.63;;;;;;;9.67;69.26;101411.38;5089943;28;20028;-83
2022/04/20 09:19:24;;;;;;;;;;;;;;;9.50;69.13;101400.72;5090167;28;20031;-83
2022/04/20 09:21:49;;;;;;;11.27;6.30;;;;;;;9.33;69.30;101391.75;5089783;28;19919;-83
2022/04/20 09:24:15;;;;;;;12.18;6.30;;;;;;;9.40;69.20;101403.50;5091431;28;20028;-83
2022/04/20 09:26:51;;;;;;;8.65;5.80;;;;;;;9.37;69.36;101385.03;5091398;28;20089;-84
2022/04/20 09:29:17;;;;;;;9.13;6.00;;;;;;;9.40;69.07;101389.53;5090133;28;20032;-84
2022/04/20 09:31:44;;;;;;;9.57;5.68;;;;;;;9.12;69.55;101344.25;5091160;28;20099;-82
2022/04/20 09:34:32;;;;;;;8.45;5.72;;;;;;;9.40;69.81;101407.78;5090268;28;20074;-83
2022/04/20 09:36:58;;;;;;;10.40;5.72;;;;;;;9.39;69.49;101406.88;5094572;28;20031;-83
2022/04/20 09:39:30;;;;;;;9.20;5.63;;;;;;;9.42;69.60;101408.78;5094150;28;20020;-83
2022/04/20 09:41:59;;;;;;;8.90;5.30;;;;;;;9.40;69.75;101405.19;5095401;28;20024;-83
2022/04/20 09:44:26;;;;;;;10.70;5.88;;;;;;;9.43;69.78;101408.00;5093766;28;20024;-83
2022/04/20 09:49:57;;;;;;;8.52;5.45;;;;;;;9.45;69.63;101406.41;5094144;28;20031;-83
2022/04/20 09:52:39;;;;;;;7.60;5.15;;;;;;;9.48;69.92;101409.22;5094058;28;20110;-82
2022/04/20 09:55:06;;;;;;;9.93;5.57;;;;;;;9.41;70.00;101384.44;5094984;28;20016;-83
2022/04/20 09:57:34;;;;;;;7.63;5.35;;;;;;;9.46;69.66;101400.38;5093990;28;20036;-83
2022/04/20 10:00:03;;;;;;;8.40;5.72;;;;;;;9.53;69.89;101400.03;5094926;28;20132;-84
2022/04/20 10:02:29;;;;;;;8.32;5.25;;;;;;;9.45;69.74;101381.25;5093857;28;20104;-83
2022/04/20 10:04:56;;;;;;;9.75;5.78;;;;;;;9.37;69.58;101361.56;5094913;28;20020;-83
2022/04/20 10:07:22;;;;;;;7.47;5.40;;;;;;;9.51;70.23;101388.59;5093155;28;20112;-83
2022/04/20 10:09:47;;;;;;;7.20;4.95;;;;;;;9.40;69.75;101363.47;5093368;28;20099;-83
2022/04/20 10:12:15;;;;;;;10.00;5.70;;;;;;;9.58;69.81;101389.09;5094793;28;20032;-84
2022/04/20 10:17:28;;;;;;;7.75;5.13;;;;;;;9.56;69.98;101377.66;5093505;28;20039;-83
2022/04/20 10:19:54;;;;;;;9.52;5.68;;;;;;;9.53;70.05;101371.34;5092750;28;20032;-83
2022/04/20 10:22:21;;;;;;;11.30;5.75;;;;;;;9.50;70.42;101368.50;5094428;28;20027;-83
2022/04/20 10:24:53;;;;;;;9.68;5.72;;;;;;;9.58;70.37;101373.44;5093011;28;20039;-83
2022/04/20 10:27:31;;;;;;;10.85;6.35;;;;;;;9.53;70.57;101363.53;5093139;28;20029;-84
2022/04/20 10:29:59;;;;;;;9.93;5.68;;;;;;;9.59;70.93;101379.59;5094222;28;20032;-84
2022/04/20 10:32:28;;;;;;;9.32;5.25;;;;;;;9.58;70.95;101373.44;5092805;28;20031;-84
2022/04/20 10:34:53;;;;;;;9.25;5.97;;;;;;;9.51;71.45;101365.13;5092889;28;20086;-84
2022/04/20 10:37:25;;;;;;;10.30;5.93;;;;;;;9.30;71.46;101326.38;5092921;28;20477;-84
2022/04/20 10:39:53;;;;;;;10.88;6.40;;;;;;;9.58;72.02;101376.03;5092839;28;20108;-83
2022/04/20 10:42:20;;;;;;;9.80;5.97;;;;;;;9.62;72.27;101379.78;5092717;28;20024;-83
2022/04/20 10:44:51;;;;;;;7.88;5.38;;;;;;;9.66;72.60;101380.91;5092767;28;20032;-83
2022/04/20 10:47:23;;;;;;;10.68;6.18;;;;;;;9.67;73.16;101382.69;5092158;28;20020;-83
2022/04/20 10:49:52;;;;;;;9.65;5.43;;;;;;;9.71;72.57;101380.38;5093766;28;20040;-83
2022/04/20 10:52:25;;;;;;;10.93;6.47;;;;;;;9.73;73.07;101380.50;5092681;28;20410;-83
2022/04/20 10:54:51;;;;;;;9.05;5.85;;;;;;;9.69;73.33;101368.94;5092519;28;20055;-83
2022/04/20 10:57:17;;;;;;;9.15;6.38;;;;;;;9.68;73.35;101369.75;5093576;28;20024;-83
2022/04/20 10:59:43;;;;;;;10.77;6.53;;;;;;;9.55;73.93;101341.97;5091855;28;20535;-83
2022/04/20 11:02:12;;;;;;;11.88;6.30;;;;;;;9.60;74.11;101344.88;5092296;28;20060;-83
2022/04/20 11:04:46;;;;;;;10.98;6.28;;;;;;;9.75;74.23;101358.94;5090512;28;20043;-83
2022/04/20 11:07:17;;;;;;;11.43;5.85;;;;;;;9.76;74.41;101354.63;5092048;28;20032;-85
2022/04/20 11:09:42;;;;;;;13.23;6.43;;;;;;;9.82;74.34;101360.25;5093082;28;20116;-84
2022/04/20 11:21:11;;;;;;;14.63;7.00;;;;;;;9.85;74.75;101338.69;5093334;28;20043;-84
2022/04/20 11:24:00;;;;;;;9.43;6.35;;;;;;;9.85;74.97;101331.75;5092308;28;20035;-83
2022/04/20 11:26:28;;;;;;;14.60;6.65;;;;;;;9.85;75.13;101320.44;5089046;28;20113;-83
2022/04/20 11:28:55;;;;;;;10.75;6.57;;;;;;;9.83;74.31;101309.00;5092520;28;20031;-84
2022/04/20 11:31:21;;;;;;;10.07;6.80;;;;;;;9.70;75.42;101279.50;5091902;28;20032;-84
2022/04/20 11:33:46;;;;;;;11.88;6.82;;;;;;;9.71;75.47;101269.97;5092074;28;20031;-83
2022/04/20 11:36:15;;;;;;;10.95;6.72;;;;;;;9.85;75.33;101296.97;5092069;28;20031;-84
2022/04/20 11:38:43;;;;;;;11.23;5.80;;;;;;;9.74;74.50;101263.25;5091511;28;20552;-83
2022/04/20 11:41:13;;;;;;;11.93;6.43;;;;;;;9.97;75.48;101298.66;5091743;28;20111;-84
2022/04/20 11:43:39;;;;;;;10.88;6.25;;;;;;;9.73;75.17;101256.22;5091505;28;20508;-85
2022/04/20 11:46:08;;;;;;;15.57;6.40;;;;;;;9.66;75.73;101240.97;5070269;28;20031;-85
2022/04/20 11:48:48;;;;;;;10.80;6.53;;;;;;;9.82;75.79;101262.81;5070845;28;20036;-85
2022/04/20 11:51:44;;;;;;;11.65;6.50;;;;;;;9.89;76.00;101280.69;5075501;28;20020;-85
2022/04/20 11:54:20;;;;;;;10.82;6.03;;;;;;;9.52;76.31;101224.41;5092217;28;20130;-85
2022/04/20 11:56:50;;;;;;;13.50;6.65;;;;;;;9.98;75.79;101292.63;5092574;28;20099;-85
2022/04/20 11:59:27;;;;;;;11.52;6.35;;;;;;;9.63;75.72;101217.31;5090750;28;20040;-85
2022/04/20 12:01:54;;;;;;;14.65;6.78;;;;;;;9.83;75.88;101251.59;5072356;28;20078;-85
2022/04/20 12:04:27;;;;;;;15.82;6.90;;;;;;;9.74;76.14;101228.44;5071278;28;20494;-85